• Join FlightAware (Why Join?)
  • Login
  • US Flag 
08:41AM EDT


 

Airport Tracker/Info


-or-


 

Live Flight TrackerFlight Track Log ✈ AWE3417 ✈ 07-Apr-2013 ✈ KMHT - KDCA

Flight Track Log - Related Links

Times and Time Zones

All times are in EDT time to prevent confusion due to time zone crossing. See the AWE3417 flight status page for this flight to view local times or setup timezone preferences in your user account.

Time Position Orientation Groundspeed Altitude Reporting Facility
EDT Latitude Longitude Course Direction KTS MPH feet Rate Location/Type
05:05PM 42.9167 -71.4167 202° Southwest 144 166 1,200  Level KA90
05:06PM 42.8667 -71.4500 206° Southwest 185 213 4,200 2,640 Climbing KA90
05:07PM 42.8667 -71.3667 90° East 289 333 6,500 2,520 Climbing KA90
05:08PM 43.0547 -71.0859 65° Northeast  Level FlightAware Approximate
05:09PM 43.0712 -70.9651 132° Southeast  Level FlightAware Approximate
05:10PM 42.9961 -70.8794 144° Southeast  Level FlightAware Approximate
05:10PM 43.0247 -71.1592 44° Northeast 352 405 13,000  Level Boston Center
05:11PM 42.9069 -70.9092 202° Southwest  Level FlightAware Approximate
05:11PM 43.0736 -71.0700 53° Northeast 352 405 15,300  Level Boston Center
05:12PM 43.0258 -70.9206 114° Southeast 306 352 18,000 2,340 Climbing Boston Center
05:13PM 42.9381 -70.9000 170° South 290 334 20,000 1,920 Climbing Boston Center
05:14PM 42.8492 -70.9475 201° Southwest 292 336 22,300 2,220 Climbing Boston Center
05:15PM 42.7414 -71.0011 200° South 319 367 24,900 2,100 Climbing Boston Center
05:16PM 42.6564 -71.0428 200° South 351 404 26,600 1,920 Climbing Boston Center
05:17PM 42.5633 -71.0869 199° South 356 410 28,800 1,680 Climbing Boston Center
05:18PM 42.4700 -71.1256 197° South 356 410 30,000 540 Climbing Boston Center
05:19PM 42.4169 -71.2308 236° Southwest 337 388 30,000  Level Boston Center
05:20PM 42.3764 -71.3553 246° West 344 396 30,000  Level Boston Center
05:21PM 42.3381 -71.4822 248° West 358 412 30,000  Level Boston Center
05:22PM 42.2972 -71.5925 243° Southwest 363 418 30,000  Level Boston Center
05:23PM 42.2503 -71.7389 247° West 363 418 30,000  Level Boston Center
05:24PM 42.2092 -71.8656 246° West 358 412 30,000  Level Boston Center
05:25PM 42.1597 -71.9808 240° Southwest 358 412 30,000  Level Boston Center
05:26PM 42.1019 -72.0903 235° Southwest 368 423 30,000  Level Boston Center
05:27PM 42.0439 -72.1997 234° Southwest 368 423 30,000  Level Boston Center
05:28PM 41.9836 -72.3061 233° Southwest 368 423 30,000  Level Boston Center
05:29PM 41.9253 -72.4150 234° Southwest 368 423 30,000  Level Boston Center
05:30PM 41.8669 -72.5236 234° Southwest 363 418 30,000  Level Boston Center
05:31PM 41.8189 -72.6100 233° Southwest 363 418 30,000  Level Boston Center
05:32PM 41.7497 -72.7378 234° Southwest 363 418 30,000  Level Boston Center
05:33PM 41.6911 -72.8458 234° Southwest 363 418 30,000  Level Boston Center
05:34PM 41.6303 -72.9539 233° Southwest 363 418 30,000  Level Boston Center
05:35PM 41.5839 -73.0394 234° Southwest 363 418 30,000  Level Boston Center
05:36PM 41.5208 -73.1528 233° Southwest 363 418 30,000  Level Boston Center
05:37PM 41.4617 -73.2600 234° Southwest 363 418 30,000  Level Boston Center
05:39PM 41.3192 -73.5172 234° Southwest 367 422 30,000  Level New York Center
05:40PM 41.2583 -73.6222 232° Southwest 367 422 30,000  Level New York Center
05:41PM 41.1975 -73.7272 232° Southwest 367 422 30,000  Level New York Center
05:42PM 41.1344 -73.8317 231° Southwest 362 417 30,000  Level New York Center
05:43PM 41.0756 -73.9308 232° Southwest 362 417 30,000  Level New York Center
05:44PM 41.0144 -74.0353 232° Southwest 362 417 30,000  Level New York Center
05:45PM 40.9531 -74.1394 232° Southwest 362 417 30,000  Level New York Center
05:46PM 40.8942 -74.2297 229° Southwest 367 422 30,000 -480 Level New York Center
05:47PM 40.8308 -74.3308 230° Southwest 367 422 29,100 -1,020 Descending New York Center
05:48PM 40.7714 -74.4347 233° Southwest 362 417 28,000 -600 Descending New York Center
05:49PM 40.7100 -74.5353 231° Southwest 362 417 28,000  Level New York Center
05:50PM 40.6506 -74.6333 231° Southwest 362 417 28,000  Level New York Center
05:51PM 40.5869 -74.7308 229° Southwest 362 417 28,000 -480 Level New York Center
05:52PM 40.5231 -74.8281 229° Southwest 362 417 27,100 -1,380 Descending New York Center
05:53PM 40.4594 -74.9197 228° Southwest 357 411 25,300 -1,860 Descending New York Center
05:54PM 40.3939 -75.0086 226° Southwest 350 403 23,500 -1,800 Descending New York Center
05:55PM 40.3300 -75.1000 227° Southwest 350 403 21,700 -1,740 Descending New York Center
05:56PM 40.2706 -75.1886 229° Southwest 344 396 20,000 -900 Descending New York Center
05:57PM 40.2111 -75.2719 227° Southwest 339 390 20,000  Level New York Center
05:58PM 40.1472 -75.3600 227° Southwest 334 384 20,000  Level New York Center
05:59PM 40.0856 -75.4456 227° Southwest 334 384 20,000  Level New York Center
06:00PM 40.0236 -75.5308 227° Southwest 334 384 20,000  Level New York Center
06:01PM 39.9592 -75.6322 230° Southwest 334 384 20,000  Level New York Center
06:02PM 39.9011 -75.7228 230° Southwest 334 384 20,000  Level New York Center
06:03PM 39.8453 -75.8108 230° Southwest 329 379 20,000  Level New York Center
06:04PM 39.7892 -75.9014 231° Southwest 329 379 20,000  Level New York Center
06:05PM 39.7331 -75.9917 231° Southwest 329 379 20,000 -900 Level New York Center
06:07PM 39.6500 -76.1167 229° Southwest 284 327 17,700 -1,440 Descending Potomac TRACON
06:08PM 39.6000 -76.2000 232° Southwest 283 326 16,300 -1,440 Descending Potomac TRACON
06:09PM 39.5500 -76.2667 226° Southwest 277 319 15,000 -1,560 Descending Potomac TRACON
06:10PM 39.5000 -76.3500 232° Southwest 279 321 13,400 -1,500 Descending Potomac TRACON
06:11PM 39.4500 -76.4167 226° Southwest 278 320 12,100 -720 Descending Potomac TRACON
06:12PM 39.3833 -76.4833 218° Southwest 279 321 12,000 -60 Descending Potomac TRACON
06:13PM 39.3167 -76.5333 210° Southwest 275 316 12,000  Level Potomac TRACON
06:14PM 39.2667 -76.5833 218° Southwest 281 323 12,000 -840 Level Potomac TRACON
06:15PM 39.2000 -76.6500 218° Southwest 277 319 10,400 -1,020 Descending Potomac TRACON
06:16PM 39.1333 -76.7000 210° Southwest 271 312 10,000 -240 Descending Potomac TRACON
06:17PM 39.0833 -76.7833 232° Southwest 275 316 10,000 -60 Level Potomac TRACON
06:18PM 39.0167 -76.8333 210° Southwest 233 268 9,900 -780 Descending Potomac TRACON
06:19PM 38.9833 -76.8833 229° Southwest 226 260 8,500 -1,380 Descending Potomac TRACON
06:20PM 38.9667 -76.9500 252° West 207 238 7,200 -840 Descending Potomac TRACON
06:21PM 38.9833 -77.0333 284° West 211 243 7,000 -420 Descending Potomac TRACON
06:22PM 39.0167 -77.0833 311° West 210 242 6,400 -780 Descending Potomac TRACON
06:23PM 39.0500 -77.1333 311° West 179 206 5,500 -1,320 Descending Potomac TRACON
06:24PM 39.0333 -77.1667 237° Southwest 168 193 3,800 -1,260 Descending Potomac TRACON
06:25PM 38.9833 -77.1500 165° South 163 188 3,000 -900 Descending Potomac TRACON
06:26PM 38.9500 -77.1333 159° South 162 186 2,100 -840 Descending Potomac TRACON
06:27PM 38.9167 -77.1000 142° Southeast 147 169 1,500 -720 Descending Potomac TRACON